createdAt,value
2018-02-12T00:00:00.378Z,15.00
2018-02-12T00:02:27.950Z,12.87
2018-02-12T00:04:55.519Z,15.50
2018-02-12T00:07:23.147Z,16.27
2018-02-12T00:09:50.718Z,16.70
2018-02-12T00:12:18.363Z,16.10
2018-02-12T00:14:45.934Z,14.20
2018-02-12T00:17:13.508Z,16.20
2018-02-12T00:19:41.082Z,14.17
2018-02-12T00:22:08.746Z,13.00
2018-02-12T00:24:36.324Z,13.00
2018-02-12T00:27:03.918Z,16.80
2018-02-12T00:29:31.536Z,18.63
2018-02-12T00:31:59.153Z,18.13
2018-02-12T00:34:26.776Z,15.17
2018-02-12T00:36:54.378Z,16.33
2018-02-12T00:39:22.895Z,14.53
2018-02-12T00:41:50.476Z,16.20
2018-02-12T00:44:18.047Z,16.27
2018-02-12T00:46:45.619Z,19.00
2018-02-12T00:49:13.246Z,16.03
2018-02-12T00:51:40.866Z,17.70
2018-02-12T00:54:08.467Z,21.33
2018-02-12T00:56:36.084Z,17.20
2018-02-12T00:59:03.666Z,21.63
2018-02-12T01:01:31.286Z,21.57
2018-02-12T01:03:58.875Z,23.00
2018-02-12T01:06:26.524Z,21.80
2018-02-12T01:08:54.102Z,20.47
2018-02-12T01:11:21.798Z,16.73
2018-02-12T01:13:49.377Z,15.50
2018-02-12T01:16:17.054Z,19.60
2018-02-12T01:18:44.628Z,21.23
2018-02-12T01:21:12.204Z,21.50
2018-02-12T01:23:39.838Z,19.17
2018-02-12T01:26:07.426Z,23.55
2018-02-12T01:28:35.053Z,18.62
2018-02-12T01:31:02.694Z,20.12
2018-02-12T01:33:30.279Z,23.53
2018-02-12T01:35:57.913Z,25.42
2018-02-12T01:38:25.528Z,21.77
2018-02-12T01:40:53.192Z,24.40
2018-02-12T01:43:20.769Z,21.20
2018-02-12T01:45:48.380Z,21.43
2018-02-12T01:48:16.002Z,20.00
2018-02-12T01:50:43.577Z,23.40
2018-02-12T01:53:11.199Z,21.90
2018-02-12T01:55:38.916Z,21.73
2018-02-12T01:58:06.506Z,21.83
2018-02-12T02:00:34.190Z,23.35
2018-02-12T02:03:01.767Z,21.80
2018-02-12T02:05:29.387Z,24.77
2018-02-12T02:07:56.973Z,23.40
2018-02-12T02:10:24.686Z,25.05
2018-02-12T02:12:52.280Z,25.90
2018-02-12T02:15:19.910Z,25.20
2018-02-12T02:17:47.538Z,25.07
2018-02-12T02:20:15.166Z,21.58
2018-02-12T02:22:42.747Z,23.60
2018-02-12T02:25:10.330Z,26.67
2018-02-12T02:27:37.921Z,24.17
2018-02-12T02:30:05.510Z,24.30
2018-02-12T02:32:33.095Z,26.92
2018-02-12T02:35:00.675Z,24.00
2018-02-12T02:37:28.367Z,28.65
2018-02-12T02:39:55.962Z,32.13
2018-02-12T02:42:23.550Z,27.70
2018-02-12T02:44:51.250Z,31.02
2018-02-12T02:47:18.851Z,27.60
2018-02-12T02:49:47.266Z,23.25
2018-02-12T02:52:14.854Z,28.30
2018-02-12T02:54:42.549Z,31.77
2018-02-12T02:57:10.174Z,32.63
2018-02-12T02:59:39.366Z,32.97
2018-02-12T03:02:06.955Z,29.27
2018-02-12T03:04:34.551Z,29.27
2018-02-12T03:07:02.134Z,35.53
2018-02-12T03:09:29.789Z,29.27
2018-02-12T03:11:57.413Z,31.60
2018-02-12T03:14:25.907Z,33.80
2018-02-12T03:16:54.340Z,39.55
2018-02-12T03:19:22.698Z,33.87
2018-02-12T03:21:50.273Z,36.75
2018-02-12T03:24:17.858Z,30.92
2018-02-12T03:26:45.435Z,33.00
2018-02-12T03:29:13.070Z,41.13
2018-02-12T03:31:40.733Z,26.60
2018-02-12T03:34:08.354Z,27.65
2018-02-12T03:36:35.958Z,28.90
2018-02-12T03:39:03.546Z,29.50
2018-02-12T03:41:31.129Z,30.62
2018-02-12T03:43:58.742Z,27.10
2018-02-12T03:46:26.403Z,27.10
2018-02-12T03:48:54.026Z,32.15
2018-02-12T03:51:21.619Z,42.53
2018-02-12T03:53:49.235Z,29.17
2018-02-12T03:56:17.615Z,31.92
2018-02-12T03:58:45.336Z,31.95
2018-02-12T04:01:13.871Z,26.45
2018-02-12T04:03:42.243Z,27.00
2018-02-12T04:06:10.710Z,26.62
2018-02-12T04:08:39.194Z,33.67
2018-02-12T04:11:07.587Z,32.70
2018-02-12T04:13:35.994Z,32.03
2018-02-12T04:16:04.472Z,32.13
2018-02-12T04:18:32.922Z,43.67
2018-02-12T04:21:01.314Z,37.10
2018-02-12T04:23:28.898Z,33.50
2018-02-12T04:25:56.495Z,31.87
2018-02-12T04:28:24.956Z,30.42
2018-02-12T04:30:53.348Z,31.47
2018-02-12T04:33:20.934Z,26.65
2018-02-12T04:35:48.586Z,29.23
2018-02-12T04:38:16.170Z,37.70
2018-02-12T04:40:44.875Z,34.47
2018-02-12T04:43:12.497Z,31.85
2018-02-12T04:45:40.808Z,33.83
2018-02-12T04:48:09.208Z,39.15
2018-02-12T04:50:37.531Z,29.75
2018-02-12T04:53:05.891Z,29.55
2018-02-12T04:55:33.522Z,37.40
2018-02-12T04:58:01.116Z,30.88
2018-02-12T05:00:29.766Z,30.45
2018-02-12T05:02:58.188Z,35.07
2018-02-12T05:05:25.854Z,28.27
2018-02-12T05:07:53.430Z,31.77
2018-02-12T05:10:21.129Z,27.67
2018-02-12T05:12:48.706Z,33.47
2018-02-12T05:15:16.316Z,32.00
2018-02-12T05:17:44.846Z,31.40
2018-02-12T05:20:13.302Z,26.52
2018-02-12T05:22:41.040Z,34.33
2018-02-12T05:25:09.518Z,31.73
2018-02-12T05:27:37.916Z,34.63
2018-02-12T05:30:06.307Z,24.73
2018-02-12T05:32:33.931Z,30.37
2018-02-12T05:35:01.531Z,28.40
2018-02-12T05:37:30.272Z,26.80
2018-02-12T05:39:58.639Z,35.10
2018-02-12T05:42:27.017Z,28.43
2018-02-12T05:44:54.636Z,30.83
2018-02-12T05:47:22.218Z,30.33
2018-02-12T05:49:49.794Z,28.17
2018-02-12T05:52:17.389Z,32.20
2018-02-12T05:54:44.974Z,29.90
2018-02-12T05:57:12.555Z,29.07
2018-02-12T05:59:40.133Z,29.53
2018-02-12T06:02:07.704Z,23.57
2018-02-12T06:04:35.279Z,29.17
2018-02-12T06:07:02.899Z,24.50
2018-02-12T06:09:31.219Z,32.13
2018-02-12T06:11:58.802Z,28.97
2018-02-12T06:14:26.374Z,25.40
2018-02-12T06:16:53.946Z,26.80
2018-02-12T06:19:21.522Z,27.20
2018-02-12T06:21:49.145Z,26.97
2018-02-12T06:24:17.731Z,33.27
2018-02-12T06:26:45.317Z,21.63
2018-02-12T06:29:12.900Z,29.20
2018-02-12T06:31:40.510Z,30.47
2018-02-12T06:34:08.869Z,27.70
2018-02-12T06:36:36.549Z,29.70
2018-02-12T06:39:04.176Z,28.43
2018-02-12T06:41:31.758Z,27.93
2018-02-12T06:43:59.404Z,25.25
2018-02-12T06:46:27.098Z,32.00
2018-02-12T06:48:54.678Z,27.20
2018-02-12T06:51:23.164Z,27.40
2018-02-12T06:53:50.807Z,21.57
2018-02-12T06:56:18.475Z,25.90
2018-02-12T06:58:46.057Z,23.13
2018-02-12T07:01:14.457Z,25.10
2018-02-12T07:03:42.030Z,28.37
2018-02-12T07:06:10.438Z,21.80
2018-02-12T07:08:38.019Z,26.60
2018-02-12T07:11:06.439Z,25.83
2018-02-12T07:13:34.056Z,19.33
2018-02-12T07:16:02.680Z,18.70
2018-02-12T07:18:31.158Z,22.00
2018-02-12T07:20:59.527Z,18.43
2018-02-12T07:23:27.875Z,26.23
2018-02-12T07:25:55.451Z,23.00
2018-02-12T07:28:23.843Z,20.53
2018-02-12T07:30:52.163Z,17.20
2018-02-12T07:33:20.478Z,21.87
2018-02-12T07:35:48.826Z,17.63
2018-02-12T07:38:16.409Z,26.93
2018-02-12T07:40:44.903Z,16.00
2018-02-12T07:43:13.294Z,22.73
2018-02-12T07:45:40.911Z,22.63
2018-02-12T07:48:09.401Z,20.97
2018-02-12T07:50:37.090Z,18.93
2018-02-12T07:53:05.624Z,21.67
2018-02-12T07:55:33.207Z,17.77
2018-02-12T07:58:01.675Z,20.10
2018-02-12T08:00:29.985Z,16.00
2018-02-12T08:02:58.262Z,18.00
2018-02-12T08:05:25.844Z,17.57
2018-02-12T08:07:54.131Z,17.73
2018-02-12T08:10:21.763Z,22.23
2018-02-12T08:12:50.260Z,16.40
2018-02-12T08:15:17.836Z,16.03
2018-02-12T08:17:46.331Z,18.10
2018-02-12T08:20:13.951Z,24.37
2018-02-12T08:22:42.444Z,20.23
2018-02-12T08:25:10.062Z,19.17
2018-02-12T08:27:37.718Z,19.47
2018-02-12T08:30:05.303Z,24.63
2018-02-12T08:32:33.651Z,21.70
2018-02-12T08:35:01.234Z,25.00
2018-02-12T08:37:29.805Z,24.97
2018-02-12T08:39:57.385Z,19.13
2018-02-12T08:42:25.810Z,19.80
2018-02-12T08:44:53.726Z,17.90
2018-02-12T08:47:22.247Z,23.27
2018-02-12T08:49:50.521Z,20.23
2018-02-12T08:52:18.137Z,18.57
2018-02-12T08:54:46.512Z,15.17
2018-02-12T08:57:15.027Z,17.13
2018-02-12T08:59:42.604Z,17.07
2018-02-12T09:02:10.291Z,18.47
2018-02-12T09:04:37.895Z,18.47
2018-02-12T09:07:05.472Z,20.40
2018-02-12T09:09:33.158Z,14.60
2018-02-12T09:12:00.738Z,22.53
2018-02-12T09:14:28.314Z,15.70
2018-02-12T09:16:55.892Z,17.93
2018-02-12T09:19:23.467Z,15.83
2018-02-12T09:21:51.067Z,21.90
2018-02-12T09:24:19.548Z,18.10
2018-02-12T09:26:47.126Z,22.83
2018-02-12T09:29:14.772Z,13.80
2018-02-12T09:31:42.350Z,14.57
2018-02-12T09:34:09.923Z,11.03
2018-02-12T09:36:37.503Z,14.87
2018-02-12T09:39:05.070Z,17.00
2018-02-12T09:41:33.635Z,18.73
2018-02-12T09:44:01.210Z,17.23
2018-02-12T09:46:28.785Z,16.90
2018-02-12T09:48:56.358Z,13.77
2018-02-12T09:51:23.942Z,12.03
2018-02-12T09:53:51.606Z,16.20
2018-02-12T09:56:19.182Z,18.07
2018-02-12T09:58:46.807Z,15.43
2018-02-12T10:01:14.391Z,16.40
2018-02-12T10:03:42.003Z,21.40
2018-02-12T10:06:10.364Z,19.53
2018-02-12T10:08:37.941Z,16.20
2018-02-12T10:11:05.509Z,15.30
2018-02-12T10:13:33.226Z,15.97
2018-02-12T10:16:00.838Z,17.80
2018-02-12T10:18:29.119Z,23.20
2018-02-12T10:20:56.747Z,14.60
2018-02-12T10:23:24.413Z,18.07
2018-02-12T10:25:52.081Z,17.87
2018-02-12T10:28:19.757Z,20.33
2018-02-12T10:30:47.370Z,18.30
2018-02-12T10:33:14.948Z,16.73
2018-02-12T10:35:42.559Z,17.30
2018-02-12T10:38:10.131Z,16.53
2018-02-12T10:40:37.708Z,17.83
2018-02-12T10:43:05.298Z,17.60
2018-02-12T10:45:32.922Z,25.27
2018-02-12T10:48:00.548Z,19.67
2018-02-12T10:50:28.264Z,19.53
2018-02-12T10:52:56.781Z,17.20
2018-02-12T10:55:24.359Z,19.33
2018-02-12T10:57:51.935Z,16.30
2018-02-12T11:00:19.512Z,22.47
2018-02-12T11:02:47.136Z,17.37
2018-02-12T11:05:14.706Z,17.70
2018-02-12T11:07:42.972Z,17.13
2018-02-12T11:10:11.359Z,14.97
2018-02-12T11:12:38.934Z,13.93
2018-02-12T11:15:07.320Z,19.13
2018-02-12T11:17:35.979Z,15.20
2018-02-12T11:20:04.566Z,14.60
2018-02-12T11:22:32.142Z,13.33
2018-02-12T11:25:00.521Z,16.47
2018-02-12T11:27:28.927Z,17.97
2018-02-12T11:29:57.475Z,15.00
2018-02-12T11:32:25.857Z,12.70
2018-02-12T11:34:54.232Z,16.13
2018-02-12T11:37:22.609Z,12.43
2018-02-12T11:39:51.076Z,20.60
2018-02-12T11:42:19.432Z,16.83
2018-02-12T11:44:47.047Z,14.03
2018-02-12T11:47:15.518Z,12.13
2018-02-12T11:49:43.994Z,14.67
2018-02-12T11:52:12.429Z,13.67
2018-02-12T11:54:40.046Z,14.10
2018-02-12T11:57:08.399Z,12.97
2018-02-12T11:59:36.007Z,10.83
2018-02-12T12:02:04.923Z,10.50
2018-02-12T12:04:33.331Z,13.97
2018-02-12T12:07:01.821Z,10.80
2018-02-12T12:09:30.228Z,14.07
2018-02-12T12:11:58.850Z,12.23
2018-02-12T12:14:27.359Z,11.97
2018-02-12T12:16:55.099Z,9.57
2018-02-12T12:19:22.771Z,12.40
2018-02-12T12:21:50.390Z,10.83
2018-02-12T12:24:17.958Z,9.13
2018-02-12T12:26:45.569Z,15.90
2018-02-12T12:29:13.915Z,16.27
2018-02-12T12:31:41.494Z,15.30
2018-02-12T12:34:09.962Z,24.87
2018-02-12T12:36:38.302Z,14.37
2018-02-12T12:39:06.931Z,19.13
2018-02-12T12:41:34.515Z,18.83
2018-02-12T12:44:02.666Z,14.33
2018-02-12T12:46:30.514Z,13.97
2018-02-12T12:48:59.021Z,17.47
2018-02-12T12:51:26.595Z,10.37
2018-02-12T12:53:55.067Z,11.00
2018-02-12T12:56:22.639Z,12.30
2018-02-12T12:58:50.210Z,13.07
2018-02-12T13:01:17.782Z,16.13
2018-02-12T13:03:45.365Z,14.47
2018-02-12T13:06:12.954Z,18.10
2018-02-12T13:08:40.666Z,20.17
2018-02-12T13:11:09.424Z,17.70
2018-02-12T13:13:37.039Z,15.23
2018-02-12T13:16:04.615Z,18.80
2018-02-12T13:18:32.306Z,17.53
2018-02-12T13:20:59.974Z,18.73
2018-02-12T13:23:28.462Z,24.63
2018-02-12T13:25:56.082Z,15.23
2018-02-12T13:28:23.657Z,18.67
2018-02-12T13:30:51.230Z,20.63
2018-02-12T13:33:18.810Z,24.40
2018-02-12T13:35:46.382Z,19.90
2018-02-12T13:38:14.726Z,22.03
2018-02-12T13:40:42.943Z,20.97
2018-02-12T13:43:10.576Z,18.83
2018-02-12T13:45:38.980Z,18.70
2018-02-12T13:48:06.567Z,16.63
2018-02-12T13:50:34.138Z,19.03
2018-02-12T13:53:01.740Z,21.07
2018-02-12T13:55:30.109Z,20.23
2018-02-12T13:57:58.389Z,21.50
2018-02-12T14:00:25.976Z,18.87
2018-02-12T14:02:53.618Z,16.60
2018-02-12T14:05:21.198Z,19.03
2018-02-12T14:07:49.735Z,16.10
2018-02-12T14:10:17.430Z,15.97
2018-02-12T14:12:45.008Z,14.17
2018-02-12T14:15:12.583Z,12.73
2018-02-12T14:17:40.156Z,15.33
2018-02-12T14:20:07.768Z,12.63
2018-02-12T14:22:35.351Z,14.87
2018-02-12T14:25:02.925Z,13.77
2018-02-12T14:27:31.305Z,12.07
2018-02-12T14:29:58.922Z,10.17
2018-02-12T14:32:27.286Z,8.93
2018-02-12T14:34:54.878Z,9.50
2018-02-12T14:37:22.451Z,9.57
2018-02-12T14:39:50.062Z,11.13
2018-02-12T14:42:17.634Z,11.43
2018-02-12T14:44:45.224Z,8.00
2018-02-12T14:47:12.844Z,11.00
2018-02-12T14:49:41.467Z,15.77
2018-02-12T14:52:09.745Z,10.63
2018-02-12T14:54:37.319Z,13.23
2018-02-12T14:57:04.971Z,21.30
2018-02-12T14:59:32.640Z,11.57
2018-02-12T15:02:01.165Z,5.10
2018-02-12T15:04:29.667Z,9.00
2018-02-12T15:06:57.239Z,12.70
2018-02-12T15:09:24.852Z,10.50
2018-02-12T15:11:52.432Z,7.17
2018-02-12T15:14:20.963Z,9.97
2018-02-12T15:16:49.383Z,5.83
2018-02-12T15:19:17.735Z,10.93
2018-02-12T15:21:46.073Z,9.90
2018-02-12T15:24:14.338Z,5.17
2018-02-12T15:26:42.754Z,7.60
2018-02-12T15:29:11.029Z,8.40
2018-02-12T15:31:39.426Z,10.23
2018-02-12T15:34:07.893Z,8.30
2018-02-12T15:36:36.383Z,5.70
2018-02-12T15:39:04.767Z,11.03
2018-02-12T15:41:33.244Z,7.13
2018-02-12T15:44:01.664Z,7.50
2018-02-12T15:46:30.020Z,8.40
2018-02-12T15:48:58.381Z,11.47
2018-02-12T15:51:26.861Z,10.17
2018-02-12T15:53:55.270Z,14.37
2018-02-12T15:56:23.622Z,12.50
2018-02-12T15:58:52.039Z,14.20
2018-02-12T16:01:20.333Z,9.90
2018-02-12T16:03:47.906Z,6.30
2018-02-12T16:06:15.488Z,10.23
2018-02-12T16:08:43.914Z,10.90
2018-02-12T16:11:12.462Z,9.20
2018-02-12T16:13:40.846Z,6.50
2018-02-12T16:16:09.321Z,9.23
2018-02-12T16:18:36.896Z,9.33
2018-02-12T16:21:05.322Z,8.20
2018-02-12T16:23:33.660Z,10.07
2018-02-12T16:26:01.233Z,7.10
2018-02-12T16:28:28.806Z,9.73
2018-02-12T16:30:56.369Z,5.43
2018-02-12T16:33:23.938Z,7.43
2018-02-12T16:35:51.509Z,8.93
2018-02-12T16:38:19.083Z,12.20
2018-02-12T16:40:47.666Z,8.50
2018-02-12T16:43:15.335Z,5.17
2018-02-12T16:45:42.911Z,10.50
2018-02-12T16:48:10.588Z,10.17
2018-02-12T16:50:38.250Z,11.40
2018-02-12T16:53:05.862Z,13.43
2018-02-12T16:55:33.430Z,9.77
2018-02-12T16:58:01.739Z,9.03
2018-02-12T17:00:30.094Z,11.60
2018-02-12T17:02:57.707Z,11.73
2018-02-12T17:05:25.350Z,9.17
2018-02-12T17:07:53.018Z,13.00
2018-02-12T17:10:21.289Z,9.57
2018-02-12T17:12:48.874Z,13.80
2018-02-12T17:15:17.372Z,9.83
2018-02-12T17:17:44.967Z,13.20
2018-02-12T17:20:12.539Z,9.37
2018-02-12T17:22:40.112Z,17.60
2018-02-12T17:25:07.719Z,10.33
2018-02-12T17:27:35.498Z,11.90
2018-02-12T17:30:03.122Z,11.97
2018-02-12T17:32:30.740Z,23.90
2018-02-12T17:34:58.317Z,13.10
2018-02-12T17:37:26.156Z,10.30
2018-02-12T17:39:54.044Z,15.40
2018-02-12T17:42:21.681Z,17.30
2018-02-12T17:44:49.294Z,11.70
2018-02-12T17:47:16.905Z,18.77
2018-02-12T17:49:44.584Z,13.90
2018-02-12T17:52:12.211Z,12.37
2018-02-12T17:54:39.840Z,10.00
2018-02-12T17:57:08.318Z,12.53
2018-02-12T17:59:36.031Z,14.37
2018-02-12T18:02:03.650Z,11.43
2018-02-12T18:04:31.227Z,18.60
2018-02-12T18:06:58.871Z,22.00
2018-02-12T18:09:27.327Z,16.77
2018-02-12T18:11:54.914Z,17.60
2018-02-12T18:14:27.033Z,20.57
2018-02-12T18:16:54.824Z,14.50
2018-02-12T18:19:22.399Z,19.00
2018-02-12T18:21:50.023Z,16.13
2018-02-12T18:24:17.703Z,16.60
2018-02-12T18:26:45.312Z,16.47
2018-02-12T18:29:13.802Z,13.13
2018-02-12T18:31:41.374Z,18.80
2018-02-12T18:34:08.991Z,17.13
2018-02-12T18:36:36.628Z,24.20
2018-02-12T18:39:04.246Z,19.40
2018-02-12T18:41:32.409Z,14.82
2018-02-12T18:43:59.995Z,14.70
2018-02-12T18:46:27.578Z,14.45
2018-02-12T18:48:55.150Z,13.47
2018-02-12T18:51:22.736Z,18.23
2018-02-12T18:53:50.318Z,16.47
2018-02-12T18:56:17.945Z,20.83
2018-02-12T18:58:48.401Z,21.45
2018-02-12T19:01:16.015Z,18.43
2018-02-12T19:03:44.841Z,20.20
2018-02-12T19:06:13.811Z,27.53
2018-02-12T19:08:41.378Z,16.60
2018-02-12T19:11:09.014Z,18.50
2018-02-12T19:13:36.642Z,14.57
2018-02-12T19:16:05.104Z,14.70
2018-02-12T19:18:32.683Z,28.63
2018-02-12T19:24:04.906Z,17.77
2018-02-12T19:26:42.132Z,22.10
2018-02-12T19:29:13.614Z,22.03
2018-02-12T19:31:42.191Z,16.47
2018-02-12T19:34:10.747Z,23.70
2018-02-12T19:36:40.201Z,18.27
2018-02-12T19:39:08.237Z,21.60
2018-02-12T19:41:36.672Z,22.37
2018-02-12T19:44:04.313Z,22.25
2018-02-12T19:46:32.460Z,21.75
2018-02-12T19:49:00.998Z,22.13
2018-02-12T19:51:28.590Z,23.52
2018-02-12T19:53:57.047Z,24.92
2018-02-12T19:56:24.642Z,35.50
2018-02-12T19:58:56.272Z,21.67
2018-02-12T20:01:25.378Z,19.40
2018-02-12T20:03:53.437Z,24.70
2018-02-12T20:06:22.756Z,21.08
2018-02-12T20:08:50.493Z,19.12
2018-02-12T20:11:18.074Z,20.83
2018-02-12T20:13:52.512Z,19.05
2018-02-12T20:16:29.686Z,26.65
2018-02-12T20:18:58.386Z,22.35
2018-02-12T20:21:26.752Z,18.10
2018-02-12T20:23:55.511Z,22.58
2018-02-12T20:26:23.734Z,22.08
2018-02-12T20:28:51.343Z,19.00
2018-02-12T20:31:19.003Z,17.30
2018-02-12T20:33:46.661Z,17.95
2018-02-12T20:36:14.246Z,17.42
2018-02-12T20:38:41.935Z,18.67
2018-02-12T20:41:10.566Z,16.70
2018-02-12T20:43:38.192Z,18.12
2018-02-12T20:46:05.827Z,14.90
2018-02-12T20:48:33.462Z,18.48
2018-02-12T20:51:01.619Z,14.82
2018-02-12T20:53:29.359Z,17.33
2018-02-12T20:55:57.845Z,10.52
2018-02-12T20:58:25.463Z,19.20
2018-02-12T21:00:53.051Z,13.00
2018-02-12T21:03:20.755Z,13.95
2018-02-12T21:05:48.539Z,15.75
2018-02-12T21:08:17.134Z,22.73
2018-02-12T21:10:44.723Z,23.15
2018-02-12T21:13:13.247Z,12.82
2018-02-12T21:15:41.910Z,17.95
2018-02-12T21:18:10.563Z,17.80
2018-02-12T21:20:39.064Z,10.93
2018-02-12T21:23:08.404Z,20.15
2018-02-12T21:25:36.159Z,14.13
2018-02-12T21:28:03.750Z,15.35
2018-02-12T21:30:31.402Z,18.60
2018-02-12T21:32:59.482Z,17.02
2018-02-12T21:35:27.538Z,12.43
2018-02-12T21:37:55.263Z,18.80
2018-02-12T21:40:22.846Z,18.62
2018-02-12T21:42:51.423Z,16.00
2018-02-12T21:45:19.016Z,18.02
2018-02-12T21:47:47.912Z,8.88
2018-02-12T21:50:16.546Z,16.15
2018-02-12T21:52:44.158Z,16.48
2018-02-12T21:55:11.760Z,17.58
2018-02-12T21:57:39.367Z,12.02
2018-02-12T22:00:07.012Z,13.80
2018-02-12T22:02:34.633Z,14.95
2018-02-12T22:05:02.216Z,20.35
2018-02-12T22:07:29.838Z,19.12
2018-02-12T22:09:57.424Z,15.98
2018-02-12T22:12:25.052Z,13.90
2018-02-12T22:14:53.353Z,13.55
2018-02-12T22:17:21.826Z,12.63
2018-02-12T22:19:50.191Z,18.10
2018-02-12T22:22:17.778Z,17.10
2018-02-12T22:24:45.366Z,19.08
2018-02-12T22:27:12.953Z,15.15
2018-02-12T22:29:40.538Z,16.77
2018-02-12T22:32:08.127Z,13.05
2018-02-12T22:34:35.713Z,14.45
2018-02-12T22:37:03.518Z,15.18
2018-02-12T22:39:31.112Z,20.73
2018-02-12T22:41:58.697Z,17.00
2018-02-12T22:44:26.283Z,25.95
2018-02-12T22:46:53.920Z,15.50
2018-02-12T22:49:21.502Z,15.77
2018-02-12T22:51:49.090Z,20.15
2018-02-12T22:54:16.671Z,19.43
2018-02-12T22:56:44.319Z,21.87
2018-02-12T22:59:11.912Z,21.77
2018-02-12T23:01:40.273Z,18.67
2018-02-12T23:04:07.858Z,13.95
2018-02-12T23:06:35.448Z,20.75
2018-02-12T23:09:03.747Z,15.85
2018-02-12T23:11:31.334Z,20.73
2018-02-12T23:13:58.930Z,15.38
2018-02-12T23:16:27.423Z,16.77
2018-02-12T23:18:55.792Z,17.20
2018-02-12T23:21:23.376Z,16.25
2018-02-12T23:23:50.966Z,13.70
2018-02-12T23:26:18.559Z,16.20
2018-02-12T23:28:46.962Z,15.95
2018-02-12T23:31:14.583Z,16.80
2018-02-12T23:33:43.083Z,15.60
2018-02-12T23:36:11.442Z,16.27
2018-02-12T23:38:39.067Z,14.25
2018-02-12T23:41:07.434Z,20.62
2018-02-12T23:43:35.018Z,21.00
2018-02-12T23:46:03.511Z,16.33
2018-02-12T23:48:31.104Z,11.50
2018-02-12T23:50:59.506Z,27.08
2018-02-12T23:53:27.898Z,20.05
2018-02-12T23:55:56.183Z,24.50
2018-02-12T23:58:24.583Z,18.25
